createdAt,value
2022-09-14T00:10:05.539Z,15.80
2022-09-14T00:20:12.335Z,14.40
2022-09-14T00:30:18.152Z,13.20
2022-09-14T00:40:23.843Z,14.30
2022-09-14T00:50:29.641Z,14.10
2022-09-14T01:00:35.447Z,14.70
2022-09-14T01:10:54.199Z,14.60
2022-09-14T01:21:05.028Z,16.00
2022-09-14T01:31:18.484Z,14.40
2022-09-14T01:41:30.214Z,12.80
2022-09-14T01:51:40.325Z,13.90
2022-09-14T02:01:53.212Z,12.70
2022-09-14T02:12:00.906Z,12.60
2022-09-14T02:22:06.746Z,13.40
2022-09-14T02:32:22.337Z,16.00
2022-09-14T02:42:40.648Z,16.00
2022-09-14T02:52:53.523Z,17.00
2022-09-14T03:02:59.580Z,19.30
2022-09-14T03:13:05.846Z,20.30
2022-09-14T03:23:12.138Z,21.00
2022-09-14T03:33:17.987Z,25.20
2022-09-14T03:43:23.597Z,42.00
2022-09-14T03:53:29.266Z,43.30
2022-09-14T04:03:35.694Z,35.60
2022-09-14T04:13:41.908Z,29.70
2022-09-14T04:34:14.769Z,18.80
2022-09-14T04:44:20.577Z,17.40
2022-09-14T04:54:26.120Z,18.90
2022-09-14T05:04:31.862Z,25.10
2022-09-14T05:14:37.683Z,22.60
2022-09-14T05:24:43.381Z,24.00
2022-09-14T05:34:49.004Z,41.60
2022-09-14T05:44:54.721Z,23.20
2022-09-14T05:55:00.510Z,20.30
2022-09-14T06:05:06.826Z,17.80
2022-09-14T06:15:13.530Z,17.20
2022-09-14T06:25:19.125Z,18.30
2022-09-14T06:35:24.735Z,18.80
2022-09-14T06:45:31.223Z,14.90
2022-09-14T06:55:36.905Z,14.20
2022-09-14T07:05:42.571Z,12.20
2022-09-14T07:15:52.579Z,10.70
2022-09-14T07:26:05.187Z,9.40
2022-09-14T07:36:13.116Z,8.50
2022-09-14T07:46:19.130Z,6.90
2022-09-14T07:56:25.939Z,7.70
2022-09-14T08:06:32.105Z,5.90
2022-09-14T08:16:38.895Z,6.30
2022-09-14T08:26:44.759Z,5.50
2022-09-14T08:36:51.041Z,4.70
2022-09-14T08:47:02.943Z,6.90
2022-09-14T08:57:16.882Z,4.90
2022-09-14T09:07:32.754Z,12.40
2022-09-14T09:17:43.644Z,3.90
2022-09-14T09:27:49.450Z,5.80
2022-09-14T09:37:55.181Z,7.70
2022-09-14T09:48:09.511Z,3.90
2022-09-14T09:58:29.380Z,5.90
2022-09-14T10:08:40.755Z,4.70
2022-09-14T10:18:49.591Z,3.80
2022-09-14T10:28:55.818Z,6.60
2022-09-14T10:39:16.231Z,4.70
2022-09-14T10:49:38.008Z,3.50
2022-09-14T10:59:53.610Z,3.30
2022-09-14T11:10:06.715Z,7.30
2022-09-14T11:20:25.791Z,3.40
2022-09-14T11:30:39.732Z,2.20
2022-09-14T11:40:48.328Z,4.80
2022-09-14T11:51:01.134Z,7.00
2022-09-14T12:01:28.849Z,4.50
2022-09-14T12:11:37.152Z,8.10
2022-09-14T12:21:43.634Z,4.50
2022-09-14T12:32:23.249Z,2.30
2022-09-14T12:42:32.201Z,4.80
2022-09-14T12:52:46.064Z,3.00
2022-09-14T13:03:07.053Z,4.00
2022-09-14T13:13:26.938Z,5.10
2022-09-14T13:23:37.907Z,2.50
2022-09-14T13:33:50.015Z,4.40
2022-09-14T13:43:58.003Z,15.40
2022-09-14T14:04:28.398Z,6.60
2022-09-14T14:14:34.204Z,3.80
2022-09-14T14:25:02.048Z,3.30
2022-09-14T14:35:15.660Z,1.70
2022-09-14T14:45:26.470Z,7.00
2022-09-14T14:55:33.167Z,3.60
2022-09-14T15:05:42.233Z,5.90
2022-09-14T15:15:48.034Z,3.30
2022-09-14T15:25:55.059Z,3.20
2022-09-14T15:36:01.270Z,1.20
2022-09-14T15:46:07.105Z,4.00
2022-09-14T15:56:14.308Z,3.70
2022-09-14T16:06:19.898Z,3.70
2022-09-14T16:16:26.042Z,4.60
2022-09-14T16:26:33.912Z,6.80
2022-09-14T16:36:41.780Z,2.20
2022-09-14T16:46:48.827Z,7.10
2022-09-14T16:56:57.078Z,5.70
2022-09-14T17:07:02.900Z,5.30
2022-09-14T17:17:08.975Z,5.60
2022-09-14T17:27:14.625Z,9.60
2022-09-14T17:37:20.325Z,6.90
2022-09-14T17:47:26.548Z,8.50
2022-09-14T17:57:32.141Z,6.60
2022-09-14T18:07:37.937Z,5.10
2022-09-14T18:17:44.994Z,6.60
2022-09-14T18:27:50.778Z,6.80
2022-09-14T18:37:56.991Z,7.40
2022-09-14T18:48:03.509Z,4.00
2022-09-14T18:58:09.549Z,11.20
2022-09-14T19:08:15.220Z,9.30
2022-09-14T19:18:21.031Z,17.80
2022-09-14T19:28:26.809Z,21.80
2022-09-14T19:38:32.831Z,22.60
2022-09-14T19:48:39.159Z,15.90
2022-09-14T19:58:46.868Z,18.20
2022-09-14T20:08:54.555Z,17.20
2022-09-14T20:19:06.082Z,16.20
2022-09-14T20:29:11.726Z,21.70
2022-09-14T20:39:17.846Z,17.10
2022-09-14T20:49:24.659Z,14.40
2022-09-14T20:59:30.622Z,13.40
2022-09-14T21:09:37.209Z,14.10
2022-09-14T21:19:43.001Z,12.30
2022-09-14T21:29:50.417Z,10.00
2022-09-14T21:39:57.774Z,14.70
2022-09-14T21:50:03.657Z,10.30
2022-09-14T22:00:12.553Z,11.10
2022-09-14T22:10:19.429Z,10.60
2022-09-14T22:20:25.172Z,11.20
2022-09-14T22:30:30.833Z,11.60
2022-09-14T22:40:36.664Z,11.40
2022-09-14T22:50:43.977Z,9.30
2022-09-14T23:00:50.055Z,10.50
2022-09-14T23:10:56.170Z,14.20
2022-09-14T23:21:05.437Z,9.80
2022-09-14T23:31:11.157Z,11.10
2022-09-14T23:41:16.952Z,12.50
2022-09-14T23:51:22.756Z,12.20
